Wiarton Airport
CYVV : now visible

Airfield :











YOU CAN JOIN US ON...

 
LOGIN :

Register | Disclaimer

   EN    FR    IT 

 









Legend :    VFR   Marginal VFR   IFR   Intensive IFR   Very Intensive IFR
Visi :
Ceiling :
>= 8 km
>= 3000ft
5 to 8 km
1000 to 3000 ft
1500m to 5 km
500 to 1000 ft
800 to 1500m
200 to 500 ft
< 800m
< 200 ft
Symbols :   Thunderstorms  Fog  Heavy snow  Heavy precipitations  Wind > 20 kt






- Airport Elevation : 729 ft
- IATA code : YVV


CYVV - Wiarton

CURRENT METAR :
  • 200712Z 14005KT 15SM FEW038 OVC070 16/13 A2957 RMK SC2AC6 SLP017 DENSITY ALT 1400FT

EXPIRED METARs :
  • 200700Z 13005KT 15SM -SHRA FEW038 OVC070 16/13 A2957 RMK SC2AC6 CVCTV CLD EMBD SLP017 DENSITY ALT 1500FT
  • 200615Z 16009KT 12SM -SHRA SCT038 OVC070 17/13 A2959 RMK SC4AC4 CVCTV CLD EMBD SLP025 DENSITY ALT 1500FT
  • 200600Z 17008KT 15SM SCT038 OVC070 17/13 A2960 RMK SC4AC4 SLP028 DENSITY ALT 1500FT
  • 200500Z 18006KT 15SM OVC070 16/13 A2961 RMK AC8 SLP032 DENSITY ALT 1400FT

Expired Forecast.
CZYZ FIR / North America



MET'MAP, your aeronautical weather chart ! - Copyright ORBIFLY December 2007 - Disclaimer

ORBIFLY MET'MAP TEAM :

Programming & Development : Alexandra Zaïnal
Original concept : Baudouin d'Aumeries
Technical & hardware support : Manuel Goepfert
Assistance : Marc-Olivier Méhu

Contact : metmap@orbifly.com




SOURCES & CREDITS :

   NOAA       Earth
Advisory